Commanda, Canada
Current Conditions -  °F | °C
As of 11:47 AM on Friday 24 Oct 2014 (Local Time) from CYYB Reporting Station
Broken Clouds Broken Clouds  
Wind Chill: 43°   Ceiling: 28000
Heat Index: 43°   Visibility: 15mi
Dew Point: 41°   Wind: 3mph
Humidity: 93%   Direction: 280°W
Pressure: 29.97"   Gusts: NA
Location:  45.95°N, 79.6°W
Report Text: CYYB 241547Z 28003KT 230V330 15SM FEW002 BKN280 06/05 A2997 RMK SF2CI4 SLP164
Loading
Personal Weather Stations






























Interactive Weather Map
Tropical Storm Tracking
New forecast layout! Learn more

10-Day Weather Forecast

Advertisements
Track Severe Weather on mobile